DAL500 KATL-KLAX
Flight info
| Callsign | DAL500 |
|---|---|
| Flight time | 4h 25m |
| Altitude | 30000 |
| Route | NASSA2 YAALL J14 PNH/N0508F320 ACH ABQ J78 DRK GABBL HLYWD1 |
| Aircraft | B77W/H-SDE1E2E3FGHIJ2J3J4J5M1RWXY/LB1D1 |
Departure
| Time | 2026-05-04 22:18 |
|---|---|
| Airport | Hartsfield Jackson Atlanta International Airport (KATL) |
Arrival
| Time | 2026-05-05 02:43 |
|---|---|
| Airport | Los Angeles International Airport (KLAX) |
| Time | Latitude | Longitude | Altitude | Speed | Heading |
|---|---|---|---|---|---|
| 2026-05-04 21:38 | 33.64041 | -84.43667 | 1011 ft | 0 kts | 97° |
| 2026-05-04 22:02 | 33.64042 | -84.43681 | 1019 ft | 2 kts | 91° |
| 2026-05-04 22:02 | 33.64042 | -84.43698 | 1014 ft | 3 kts | 78° |
| 2026-05-04 22:02 | 33.64035 | -84.43715 | 1009 ft | 3 kts | 25° |
| 2026-05-04 22:02 | 33.64017 | -84.43721 | 1011 ft | 3 kts | 2° |
| 2026-05-04 22:03 | 33.64001 | -84.43721 | 1011 ft | 1 kts | 0° |
| 2026-05-04 22:03 | 33.64000 | -84.43721 | 1011 ft | 0 kts | 0° |
| 2026-05-04 22:07 | 33.64068 | -84.43721 | 1008 ft | 13 kts | 359° |
| 2026-05-04 22:08 | 33.64156 | -84.43722 | 1011 ft | 13 kts | 359° |
| 2026-05-04 22:08 | 33.64244 | -84.43723 | 1011 ft | 13 kts | 359° |
| 2026-05-04 22:08 | 33.64332 | -84.43723 | 1011 ft | 13 kts | 1° |
| 2026-05-04 22:08 | 33.64420 | -84.43719 | 1011 ft | 13 kts | 6° |
| 2026-05-04 22:09 | 33.64443 | -84.43705 | 1011 ft | 3 kts | 39° |
| 2026-05-04 22:09 | 33.64456 | -84.43681 | 1011 ft | 6 kts | 70° |
| 2026-05-04 22:09 | 33.64459 | -84.43597 | 1011 ft | 11 kts | 91° |
| 2026-05-04 22:09 | 33.64459 | -84.43508 | 1011 ft | 11 kts | 89° |
| 2026-05-04 22:10 | 33.64459 | -84.43418 | 1011 ft | 11 kts | 90° |
| 2026-05-04 22:10 | 33.64460 | -84.43329 | 1011 ft | 11 kts | 89° |
| 2026-05-04 22:10 | 33.64459 | -84.43239 | 1011 ft | 11 kts | 90° |
| 2026-05-04 22:10 | 33.64459 | -84.43150 | 1011 ft | 11 kts | 90° |
| 2026-05-04 22:11 | 33.64459 | -84.43061 | 1011 ft | 11 kts | 90° |
| 2026-05-04 22:11 | 33.64459 | -84.42971 | 1011 ft | 11 kts | 90° |
| 2026-05-04 22:11 | 33.64460 | -84.42881 | 1011 ft | 11 kts | 90° |
| 2026-05-04 22:11 | 33.64461 | -84.42792 | 1011 ft | 11 kts | 85° |
| 2026-05-04 22:12 | 33.64468 | -84.42703 | 1011 ft | 11 kts | 86° |
| 2026-05-04 22:12 | 33.64469 | -84.42613 | 1011 ft | 11 kts | 89° |
| 2026-05-04 22:12 | 33.64469 | -84.42523 | 1011 ft | 11 kts | 90° |
| 2026-05-04 22:12 | 33.64469 | -84.42420 | 1011 ft | 17 kts | 89° |
| 2026-05-04 22:13 | 33.64472 | -84.42278 | 1011 ft | 16 kts | 78° |
| 2026-05-04 22:13 | 33.64520 | -84.42162 | 1011 ft | 16 kts | 60° |
| 2026-05-04 22:13 | 33.64543 | -84.42042 | 1011 ft | 15 kts | 90° |
| 2026-05-04 22:13 | 33.64542 | -84.41917 | 1011 ft | 15 kts | 90° |
| 2026-05-04 22:14 | 33.64542 | -84.41792 | 1011 ft | 15 kts | 90° |
| 2026-05-04 22:14 | 33.64542 | -84.41666 | 1012 ft | 15 kts | 90° |
| 2026-05-04 22:14 | 33.64542 | -84.41539 | 1012 ft | 15 kts | 90° |
| 2026-05-04 22:14 | 33.64542 | -84.41412 | 1012 ft | 15 kts | 90° |
| 2026-05-04 22:15 | 33.64543 | -84.41285 | 1012 ft | 15 kts | 90° |
| 2026-05-04 22:15 | 33.64542 | -84.41157 | 1012 ft | 15 kts | 90° |
| 2026-05-04 22:15 | 33.64543 | -84.41030 | 1011 ft | 15 kts | 89° |
| 2026-05-04 22:15 | 33.64542 | -84.40903 | 1011 ft | 15 kts | 91° |
| 2026-05-04 22:16 | 33.64562 | -84.40780 | 1011 ft | 15 kts | 74° |
| 2026-05-04 22:16 | 33.64570 | -84.40653 | 1010 ft | 15 kts | 89° |
| 2026-05-04 22:16 | 33.64623 | -84.40573 | 1009 ft | 12 kts | 6° |
| 2026-05-04 22:16 | 33.64678 | -84.40629 | 1008 ft | 12 kts | 277° |
| 2026-05-04 22:17 | 33.64679 | -84.40657 | 1008 ft | 0 kts | 272° |
| 2026-05-04 22:17 | 33.64679 | -84.40662 | 1008 ft | 6 kts | 272° |
| 2026-05-04 22:17 | 33.64680 | -84.40927 | 1011 ft | 68 kts | 269° |
| 2026-05-04 22:17 | 33.64677 | -84.41792 | 1012 ft | 135 kts | 270° |
| 2026-05-04 22:18 | 33.64675 | -84.43127 | 1087 ft | 172 kts | 271° |
| 2026-05-04 22:18 | 33.64757 | -84.44530 | 1809 ft | 169 kts | 271° |
| 2026-05-04 22:18 | 33.64870 | -84.45985 | 2374 ft | 178 kts | 272° |
| 2026-05-04 22:18 | 33.65004 | -84.47492 | 2940 ft | 190 kts | 277° |
| 2026-05-04 22:19 | 33.65283 | -84.49160 | 3182 ft | 218 kts | 278° |
| 2026-05-04 22:19 | 33.65627 | -84.51060 | 3440 ft | 247 kts | 280° |
| 2026-05-04 22:19 | 33.66024 | -84.53148 | 3998 ft | 261 kts | 280° |
| 2026-05-04 22:19 | 33.66430 | -84.55298 | 4803 ft | 267 kts | 281° |
| 2026-05-04 22:20 | 33.66840 | -84.57458 | 5594 ft | 270 kts | 281° |
| 2026-05-04 22:20 | 33.67245 | -84.59673 | 6430 ft | 273 kts | 279° |
| 2026-05-04 22:20 | 33.67624 | -84.61907 | 7253 ft | 274 kts | 279° |
| 2026-05-04 22:20 | 33.68003 | -84.64166 | 8033 ft | 278 kts | 279° |
| 2026-05-04 22:21 | 33.68386 | -84.66445 | 8857 ft | 280 kts | 279° |
| 2026-05-04 22:21 | 33.68774 | -84.68744 | 9677 ft | 282 kts | 278° |
| 2026-05-04 22:21 | 33.69166 | -84.71064 | 10384 ft | 288 kts | 279° |
| 2026-05-04 22:21 | 33.69577 | -84.73509 | 10662 ft | 311 kts | 279° |
| 2026-05-04 22:22 | 33.70005 | -84.76167 | 10861 ft | 336 kts | 276° |
| 2026-05-04 22:22 | 33.70181 | -84.79060 | 11082 ft | 358 kts | 269° |
| 2026-05-04 22:22 | 33.70157 | -84.82102 | 11762 ft | 368 kts | 267° |
| 2026-05-04 22:22 | 33.70092 | -84.85211 | 12639 ft | 375 kts | 267° |
| 2026-05-04 22:23 | 33.70032 | -84.88355 | 13600 ft | 379 kts | 268° |
| 2026-05-04 22:23 | 33.69990 | -84.91552 | 14324 ft | 386 kts | 268° |
| 2026-05-04 22:23 | 33.69965 | -84.94788 | 15325 ft | 387 kts | 268° |
| 2026-05-04 22:23 | 33.69949 | -84.98015 | 16362 ft | 387 kts | 268° |
| 2026-05-04 22:24 | 33.69938 | -85.01104 | 17253 ft | 390 kts | 268° |
| 2026-05-04 22:24 | 33.69928 | -85.04377 | 18146 ft | 394 kts | 268° |
| 2026-05-04 22:24 | 33.69917 | -85.07690 | 18936 ft | 398 kts | 268° |
| 2026-05-04 22:24 | 33.69906 | -85.11028 | 19731 ft | 401 kts | 269° |
| 2026-05-04 22:25 | 33.69894 | -85.14349 | 20525 ft | 404 kts | 269° |
| 2026-05-04 22:25 | 33.69881 | -85.17730 | 21307 ft | 406 kts | 269° |
| 2026-05-04 22:25 | 33.69866 | -85.21138 | 22058 ft | 410 kts | 269° |
| 2026-05-04 22:25 | 33.69847 | -85.24568 | 22805 ft | 413 kts | 269° |
| 2026-05-04 22:26 | 33.69814 | -85.28029 | 23534 ft | 416 kts | 269° |
| 2026-05-04 22:26 | 33.69774 | -85.31522 | 24097 ft | 420 kts | 269° |
| 2026-05-04 22:26 | 33.69731 | -85.35048 | 24650 ft | 424 kts | 269° |
| 2026-05-04 22:26 | 33.69688 | -85.38598 | 25207 ft | 427 kts | 269° |
| 2026-05-04 22:27 | 33.69644 | -85.42180 | 25755 ft | 431 kts | 269° |
| 2026-05-04 22:27 | 33.69600 | -85.45798 | 26310 ft | 434 kts | 269° |
| 2026-05-04 22:27 | 33.69555 | -85.49439 | 26836 ft | 438 kts | 270° |
| 2026-05-04 22:27 | 33.69509 | -85.53108 | 27337 ft | 441 kts | 270° |
| 2026-05-04 22:28 | 33.69461 | -85.56806 | 27827 ft | 445 kts | 270° |
| 2026-05-04 22:28 | 33.69412 | -85.60542 | 28301 ft | 448 kts | 270° |
| 2026-05-04 22:28 | 33.69362 | -85.64294 | 28750 ft | 451 kts | 270° |
| 2026-05-04 22:28 | 33.69311 | -85.68033 | 29181 ft | 454 kts | 270° |
| 2026-05-04 22:29 | 33.69258 | -85.71781 | 29357 ft | 442 kts | 270° |
| 2026-05-04 22:29 | 33.69151 | -85.79167 | 29473 ft | 451 kts | 270° |
| 2026-05-04 22:29 | 33.69095 | -85.82968 | 29649 ft | 458 kts | 270° |
| 2026-05-04 22:30 | 33.69036 | -85.86808 | 29931 ft | 463 kts | 270° |
| 2026-05-04 22:30 | 33.68914 | -85.94574 | 30014 ft | 463 kts | 270° |
| 2026-05-04 22:31 | 33.68791 | -86.02094 | 30003 ft | 460 kts | 270° |
| 2026-05-04 22:31 | 33.68968 | -86.09761 | 30011 ft | 460 kts | 275° |
| 2026-05-04 22:32 | 33.69649 | -86.17403 | 30001 ft | 458 kts | 277° |
| 2026-05-04 22:32 | 33.70614 | -86.24984 | 30016 ft | 460 kts | 278° |
| 2026-05-04 22:33 | 33.71242 | -86.32638 | 30006 ft | 461 kts | 274° |
| 2026-05-04 22:33 | 33.71652 | -86.40289 | 30026 ft | 462 kts | 274° |
| 2026-05-04 22:34 | 33.72149 | -86.48037 | 30016 ft | 462 kts | 275° |
| 2026-05-04 22:34 | 33.72708 | -86.55679 | 30027 ft | 462 kts | 276° |
| 2026-05-04 22:35 | 33.73285 | -86.63340 | 30025 ft | 459 kts | 275° |
| 2026-05-04 22:35 | 33.73852 | -86.70939 | 30030 ft | 455 kts | 275° |
| 2026-05-04 22:36 | 33.74409 | -86.78503 | 30020 ft | 453 kts | 275° |
| 2026-05-04 22:36 | 33.74959 | -86.86053 | 30022 ft | 453 kts | 275° |
| 2026-05-04 22:37 | 33.75503 | -86.93595 | 30008 ft | 454 kts | 275° |
| 2026-05-04 22:37 | 33.76031 | -87.00981 | 29992 ft | 452 kts | 276° |
| 2026-05-04 22:38 | 33.76565 | -87.08487 | 29992 ft | 450 kts | 276° |
| 2026-05-04 22:38 | 33.77092 | -87.15978 | 29964 ft | 449 kts | 276° |
| 2026-05-04 22:39 | 33.77610 | -87.23402 | 30003 ft | 448 kts | 276° |
| 2026-05-04 22:39 | 33.78126 | -87.30863 | 29998 ft | 448 kts | 276° |
| 2026-05-04 22:40 | 33.78636 | -87.38317 | 30012 ft | 447 kts | 276° |
| 2026-05-04 22:40 | 33.79143 | -87.45758 | 29991 ft | 446 kts | 276° |
| 2026-05-04 22:41 | 33.80110 | -87.53097 | 29996 ft | 443 kts | 284° |
| 2026-05-04 22:41 | 33.81678 | -87.60199 | 29978 ft | 443 kts | 285° |
| 2026-05-04 22:42 | 33.83291 | -87.67416 | 29966 ft | 444 kts | 285° |
| 2026-05-04 22:42 | 33.84825 | -87.74610 | 29965 ft | 443 kts | 284° |
| 2026-05-04 22:43 | 33.86317 | -87.81793 | 29957 ft | 442 kts | 284° |
| 2026-05-04 22:43 | 33.87793 | -87.88963 | 29955 ft | 441 kts | 284° |
| 2026-05-04 22:44 | 33.89263 | -87.96125 | 29954 ft | 440 kts | 284° |
| 2026-05-04 22:44 | 33.90696 | -88.03124 | 29957 ft | 440 kts | 284° |
| 2026-05-04 22:45 | 33.92145 | -88.10204 | 29930 ft | 433 kts | 285° |
| 2026-05-04 22:45 | 33.94318 | -88.20878 | 29980 ft | 440 kts | 284° |
| 2026-05-04 22:46 | 33.95774 | -88.28077 | 29960 ft | 443 kts | 284° |
| 2026-05-04 22:46 | 33.97228 | -88.35285 | 29947 ft | 443 kts | 284° |
| 2026-05-04 22:47 | 33.98677 | -88.42482 | 29956 ft | 443 kts | 284° |
| 2026-05-04 22:47 | 34.00119 | -88.49674 | 29942 ft | 441 kts | 285° |
| 2026-05-04 22:48 | 34.01544 | -88.56798 | 29949 ft | 438 kts | 285° |
| 2026-05-04 22:48 | 34.02963 | -88.63909 | 29959 ft | 435 kts | 285° |
| 2026-05-04 22:49 | 34.04372 | -88.70996 | 29965 ft | 434 kts | 285° |
| 2026-05-04 22:49 | 34.05776 | -88.78083 | 29967 ft | 435 kts | 285° |
| 2026-05-04 22:50 | 34.07178 | -88.85185 | 29967 ft | 435 kts | 285° |
| 2026-05-04 22:50 | 34.08574 | -88.92280 | 29963 ft | 433 kts | 285° |
| 2026-05-04 22:51 | 34.09963 | -88.99358 | 29964 ft | 432 kts | 285° |
| 2026-05-04 22:51 | 34.11311 | -89.06250 | 29961 ft | 431 kts | 285° |
| 2026-05-04 22:52 | 34.12674 | -89.13245 | 29956 ft | 431 kts | 285° |
| 2026-05-04 22:52 | 34.14042 | -89.20283 | 29959 ft | 431 kts | 285° |
| 2026-05-04 22:53 | 34.15405 | -89.27320 | 29944 ft | 430 kts | 285° |
| 2026-05-04 22:53 | 34.16532 | -89.33157 | 29949 ft | 428 kts | 285° |
| 2026-05-04 22:54 | 34.17879 | -89.40151 | 29956 ft | 427 kts | 285° |
| 2026-05-04 22:54 | 34.19220 | -89.47138 | 29955 ft | 427 kts | 285° |
| 2026-05-04 22:55 | 34.20560 | -89.54145 | 29962 ft | 427 kts | 285° |
| 2026-05-04 22:55 | 34.21895 | -89.61145 | 29981 ft | 429 kts | 285° |
| 2026-05-04 22:56 | 34.23224 | -89.68142 | 29960 ft | 431 kts | 285° |
| 2026-05-04 22:56 | 34.24566 | -89.75226 | 29951 ft | 433 kts | 285° |
| 2026-05-04 22:57 | 34.25907 | -89.82334 | 29948 ft | 434 kts | 285° |
| 2026-05-04 22:57 | 34.27246 | -89.89452 | 29944 ft | 434 kts | 285° |
| 2026-05-04 22:58 | 34.28580 | -89.96573 | 29944 ft | 433 kts | 285° |
| 2026-05-04 22:58 | 34.29867 | -90.03466 | 29933 ft | 430 kts | 285° |
| 2026-05-04 22:59 | 34.31178 | -90.10503 | 29934 ft | 426 kts | 285° |
| 2026-05-04 22:59 | 34.32470 | -90.17474 | 29926 ft | 424 kts | 285° |
| 2026-05-04 23:00 | 34.33752 | -90.24425 | 29934 ft | 423 kts | 285° |
| 2026-05-04 23:00 | 34.35031 | -90.31386 | 29937 ft | 424 kts | 285° |
| 2026-05-04 23:01 | 34.36308 | -90.38357 | 29933 ft | 425 kts | 285° |
| 2026-05-04 23:01 | 34.37573 | -90.45286 | 29946 ft | 424 kts | 285° |
| 2026-05-04 23:02 | 34.38842 | -90.52260 | 29947 ft | 424 kts | 285° |
| 2026-05-04 23:02 | 34.40108 | -90.59241 | 29945 ft | 424 kts | 285° |
| 2026-05-04 23:03 | 34.41367 | -90.66210 | 29935 ft | 423 kts | 285° |
| 2026-05-04 23:03 | 34.42623 | -90.73187 | 29928 ft | 423 kts | 285° |
| 2026-05-04 23:04 | 34.43873 | -90.80153 | 29930 ft | 422 kts | 285° |
| 2026-05-04 23:04 | 34.45115 | -90.87098 | 29920 ft | 421 kts | 285° |
| 2026-05-04 23:05 | 34.46349 | -90.94024 | 29901 ft | 420 kts | 285° |
| 2026-05-04 23:05 | 34.47539 | -91.00739 | 29930 ft | 421 kts | 285° |
| 2026-05-04 23:06 | 34.48768 | -91.07685 | 29918 ft | 423 kts | 285° |
| 2026-05-04 23:06 | 34.49999 | -91.14675 | 29903 ft | 424 kts | 285° |
| 2026-05-04 23:07 | 34.51226 | -91.21673 | 29915 ft | 423 kts | 284° |
| 2026-05-04 23:07 | 34.52446 | -91.28650 | 29912 ft | 423 kts | 284° |
| 2026-05-04 23:08 | 34.53664 | -91.35636 | 29910 ft | 422 kts | 284° |
| 2026-05-04 23:08 | 34.54872 | -91.42553 | 29906 ft | 422 kts | 284° |
| 2026-05-04 23:09 | 34.56087 | -91.49520 | 29906 ft | 421 kts | 284° |
| 2026-05-04 23:09 | 34.57294 | -91.56473 | 29911 ft | 420 kts | 284° |
| 2026-05-04 23:10 | 34.58494 | -91.63410 | 29901 ft | 420 kts | 284° |
| 2026-05-04 23:10 | 34.59689 | -91.70347 | 29907 ft | 419 kts | 284° |
| 2026-05-04 23:11 | 34.60872 | -91.77238 | 29901 ft | 419 kts | 284° |
| 2026-05-04 23:11 | 34.62058 | -91.84170 | 29903 ft | 419 kts | 284° |
| 2026-05-04 23:12 | 34.63240 | -91.91108 | 29871 ft | 420 kts | 284° |
| 2026-05-04 23:12 | 34.64420 | -91.98051 | 29882 ft | 419 kts | 284° |
| 2026-05-04 23:13 | 34.65568 | -92.04837 | 29883 ft | 419 kts | 284° |
| 2026-05-04 23:13 | 34.66730 | -92.11727 | 29882 ft | 419 kts | 284° |
| 2026-05-04 23:14 | 34.67317 | -92.15215 | 30135 ft | 421 kts | 284° |
| 2026-05-04 23:14 | 34.67898 | -92.18692 | 30697 ft | 417 kts | 284° |
| 2026-05-04 23:14 | 34.68421 | -92.22083 | 31425 ft | 408 kts | 283° |
| 2026-05-04 23:14 | 34.68907 | -92.25445 | 32180 ft | 400 kts | 283° |
| 2026-05-04 23:15 | 34.69375 | -92.28756 | 32827 ft | 394 kts | 283° |
| 2026-05-04 23:15 | 34.69836 | -92.32018 | 33327 ft | 391 kts | 284° |
| 2026-05-04 23:15 | 34.70297 | -92.35265 | 33740 ft | 389 kts | 284° |
| 2026-05-04 23:15 | 34.70759 | -92.38504 | 34056 ft | 389 kts | 284° |
| 2026-05-04 23:16 | 34.71223 | -92.41739 | 34332 ft | 389 kts | 284° |
| 2026-05-04 23:16 | 34.71683 | -92.44943 | 34533 ft | 390 kts | 284° |
| 2026-05-04 23:16 | 34.72147 | -92.48185 | 34830 ft | 388 kts | 284° |
| 2026-05-04 23:16 | 34.72609 | -92.51419 | 35160 ft | 386 kts | 284° |
| 2026-05-04 23:17 | 34.73065 | -92.54625 | 35472 ft | 384 kts | 284° |
| 2026-05-04 23:17 | 34.73520 | -92.57821 | 35743 ft | 384 kts | 285° |
| 2026-05-04 23:17 | 34.74437 | -92.64258 | 35837 ft | 387 kts | 285° |
| 2026-05-04 23:18 | 34.75343 | -92.70669 | 35862 ft | 382 kts | 285° |
| 2026-05-04 23:18 | 34.76238 | -92.77030 | 35866 ft | 380 kts | 285° |
| 2026-05-04 23:19 | 34.77129 | -92.83370 | 35864 ft | 380 kts | 285° |
| 2026-05-04 23:19 | 34.78010 | -92.89663 | 35867 ft | 380 kts | 285° |
| 2026-05-04 23:20 | 34.78895 | -92.96014 | 35871 ft | 381 kts | 284° |
| 2026-05-04 23:20 | 34.79761 | -93.02252 | 35864 ft | 382 kts | 284° |
| 2026-05-04 23:21 | 34.80642 | -93.08628 | 35841 ft | 382 kts | 284° |
| 2026-05-04 23:21 | 34.81520 | -93.15015 | 35849 ft | 383 kts | 284° |
| 2026-05-04 23:22 | 34.82397 | -93.21416 | 35836 ft | 383 kts | 284° |
| 2026-05-04 23:22 | 34.83272 | -93.27818 | 35833 ft | 383 kts | 284° |
| 2026-05-04 23:23 | 34.84137 | -93.34184 | 35840 ft | 383 kts | 284° |
| 2026-05-04 23:23 | 34.85005 | -93.40593 | 35825 ft | 383 kts | 284° |
| 2026-05-04 23:24 | 34.85869 | -93.47002 | 35828 ft | 383 kts | 284° |
| 2026-05-04 23:24 | 34.86731 | -93.53411 | 35825 ft | 383 kts | 284° |
| 2026-05-04 23:25 | 34.87586 | -93.59808 | 35825 ft | 383 kts | 284° |
| 2026-05-04 23:25 | 34.88433 | -93.66169 | 35822 ft | 383 kts | 284° |
| 2026-05-04 23:26 | 34.89281 | -93.72564 | 35818 ft | 382 kts | 284° |
| 2026-05-04 23:26 | 34.90125 | -93.78945 | 35817 ft | 381 kts | 284° |
| 2026-05-04 23:27 | 34.90966 | -93.85331 | 35806 ft | 381 kts | 284° |
| 2026-05-04 23:27 | 34.91801 | -93.91714 | 35814 ft | 381 kts | 284° |
| 2026-05-04 23:28 | 34.92634 | -93.98098 | 35813 ft | 382 kts | 284° |
| 2026-05-04 23:28 | 34.93446 | -94.04341 | 35823 ft | 383 kts | 284° |
| 2026-05-04 23:29 | 34.94275 | -94.10749 | 35813 ft | 383 kts | 283° |
| 2026-05-04 23:29 | 34.95095 | -94.17116 | 35808 ft | 382 kts | 283° |
| 2026-05-04 23:30 | 34.95917 | -94.23522 | 35809 ft | 382 kts | 283° |
| 2026-05-04 23:30 | 34.96738 | -94.29947 | 35809 ft | 383 kts | 283° |
| 2026-05-04 23:31 | 34.97555 | -94.36376 | 35807 ft | 383 kts | 283° |
| 2026-05-04 23:31 | 34.98368 | -94.42799 | 35798 ft | 383 kts | 283° |
| 2026-05-04 23:32 | 34.99175 | -94.49204 | 35805 ft | 382 kts | 283° |
| 2026-05-04 23:32 | 34.99973 | -94.55560 | 35804 ft | 381 kts | 283° |
| 2026-05-04 23:33 | 35.00769 | -94.61923 | 35800 ft | 380 kts | 283° |
| 2026-05-04 23:33 | 35.01567 | -94.68318 | 35811 ft | 380 kts | 283° |
| 2026-05-04 23:34 | 35.02421 | -94.74695 | 35788 ft | 381 kts | 284° |
| 2026-05-04 23:34 | 35.03298 | -94.81080 | 35789 ft | 381 kts | 284° |
| 2026-05-04 23:35 | 35.04168 | -94.87475 | 35793 ft | 382 kts | 284° |
| 2026-05-04 23:35 | 35.05027 | -94.93850 | 35770 ft | 383 kts | 283° |
| 2026-05-04 23:36 | 35.05872 | -95.00158 | 35769 ft | 383 kts | 283° |
| 2026-05-04 23:36 | 35.06724 | -95.06542 | 35755 ft | 383 kts | 283° |
| 2026-05-04 23:37 | 35.07576 | -95.12961 | 35775 ft | 383 kts | 283° |
| 2026-05-04 23:37 | 35.08427 | -95.19388 | 35774 ft | 383 kts | 283° |
| 2026-05-04 23:38 | 35.09274 | -95.25822 | 35762 ft | 383 kts | 283° |
| 2026-05-04 23:38 | 35.10112 | -95.32205 | 35766 ft | 383 kts | 283° |
| 2026-05-04 23:39 | 35.10951 | -95.38629 | 35756 ft | 382 kts | 283° |
| 2026-05-04 23:39 | 35.11786 | -95.45043 | 35760 ft | 382 kts | 283° |
| 2026-05-04 23:40 | 35.12592 | -95.51479 | 35794 ft | 383 kts | 282° |
| 2026-05-04 23:40 | 35.13360 | -95.57936 | 35754 ft | 384 kts | 282° |
| 2026-05-04 23:41 | 35.14118 | -95.64341 | 35762 ft | 383 kts | 282° |
| 2026-05-04 23:41 | 35.14882 | -95.70780 | 35753 ft | 383 kts | 282° |
| 2026-05-04 23:42 | 35.15642 | -95.77204 | 35744 ft | 382 kts | 282° |
| 2026-05-04 23:42 | 35.16277 | -95.82590 | 35748 ft | 382 kts | 282° |
| 2026-05-04 23:43 | 35.17027 | -95.88982 | 35751 ft | 382 kts | 282° |
| 2026-05-04 23:43 | 35.17779 | -95.95420 | 35742 ft | 383 kts | 282° |
| 2026-05-04 23:44 | 35.18512 | -96.01731 | 35741 ft | 383 kts | 282° |
| 2026-05-04 23:44 | 35.19259 | -96.08184 | 35744 ft | 384 kts | 282° |
| 2026-05-04 23:45 | 35.19999 | -96.14605 | 35729 ft | 384 kts | 282° |
| 2026-05-04 23:45 | 35.20735 | -96.21027 | 35738 ft | 384 kts | 282° |
| 2026-05-04 23:46 | 35.21472 | -96.27488 | 35729 ft | 383 kts | 282° |
| 2026-05-04 23:46 | 35.22206 | -96.33954 | 35725 ft | 383 kts | 282° |
| 2026-05-04 23:47 | 35.22936 | -96.40415 | 35724 ft | 383 kts | 282° |
| 2026-05-04 23:47 | 35.23663 | -96.46876 | 35714 ft | 383 kts | 281° |
| 2026-05-04 23:48 | 35.24386 | -96.53339 | 35719 ft | 383 kts | 281° |
| 2026-05-04 23:48 | 35.25100 | -96.59757 | 35729 ft | 383 kts | 281° |
| 2026-05-04 23:49 | 35.25817 | -96.66228 | 35730 ft | 383 kts | 281° |
| 2026-05-04 23:49 | 35.26530 | -96.72692 | 35734 ft | 383 kts | 281° |
| 2026-05-04 23:50 | 35.27240 | -96.79158 | 35733 ft | 383 kts | 281° |
| 2026-05-04 23:50 | 35.27947 | -96.85635 | 35712 ft | 383 kts | 281° |
| 2026-05-04 23:51 | 35.28648 | -96.92096 | 35730 ft | 383 kts | 281° |
| 2026-05-04 23:51 | 35.29346 | -96.98555 | 35731 ft | 383 kts | 281° |
| 2026-05-04 23:52 | 35.30021 | -97.04836 | 35758 ft | 383 kts | 281° |
| 2026-05-04 23:52 | 35.30708 | -97.11256 | 35731 ft | 383 kts | 281° |
| 2026-05-04 23:53 | 35.31396 | -97.17718 | 35721 ft | 382 kts | 281° |
| 2026-05-04 23:53 | 35.32077 | -97.24157 | 35710 ft | 381 kts | 281° |
| 2026-05-04 23:54 | 35.32755 | -97.30596 | 35710 ft | 381 kts | 281° |
| 2026-05-04 23:54 | 35.33431 | -97.37038 | 35712 ft | 381 kts | 281° |
| 2026-05-04 23:55 | 35.34103 | -97.43487 | 35709 ft | 381 kts | 281° |
| 2026-05-04 23:56 | 35.35106 | -97.53165 | 35709 ft | 382 kts | 281° |
| 2026-05-04 23:56 | 35.35737 | -97.59585 | 35680 ft | 383 kts | 278° |
| 2026-05-04 23:57 | 35.35847 | -97.66135 | 35695 ft | 385 kts | 274° |
| 2026-05-04 23:57 | 35.35738 | -97.72701 | 35694 ft | 385 kts | 274° |
| 2026-05-04 23:58 | 35.35631 | -97.79276 | 35670 ft | 385 kts | 274° |
| 2026-05-04 23:58 | 35.35525 | -97.85846 | 35672 ft | 385 kts | 274° |
| 2026-05-04 23:59 | 35.35418 | -97.92369 | 35675 ft | 385 kts | 274° |
| 2026-05-04 23:59 | 35.35309 | -97.98927 | 35645 ft | 385 kts | 274° |
| 2026-05-05 00:00 | 35.35198 | -98.05349 | 35671 ft | 386 kts | 274° |
| 2026-05-05 00:00 | 35.35081 | -98.11938 | 35672 ft | 387 kts | 274° |
| 2026-05-05 00:01 | 35.34959 | -98.18533 | 35667 ft | 387 kts | 274° |
| 2026-05-05 00:01 | 35.34835 | -98.25139 | 35652 ft | 388 kts | 273° |
| 2026-05-05 00:02 | 35.34706 | -98.31718 | 35644 ft | 388 kts | 273° |
| 2026-05-05 00:02 | 35.34574 | -98.38323 | 35611 ft | 388 kts | 273° |
| 2026-05-05 00:03 | 35.34438 | -98.44921 | 35621 ft | 387 kts | 273° |
| 2026-05-05 00:03 | 35.34299 | -98.51506 | 35627 ft | 386 kts | 273° |
| 2026-05-05 00:04 | 35.34157 | -98.58094 | 35628 ft | 386 kts | 273° |
| 2026-05-05 00:04 | 35.34011 | -98.64660 | 35626 ft | 386 kts | 273° |
| 2026-05-05 00:05 | 35.33862 | -98.71233 | 35625 ft | 386 kts | 273° |
| 2026-05-05 00:05 | 35.33710 | -98.77793 | 35640 ft | 384 kts | 272° |
| 2026-05-05 00:06 | 35.33556 | -98.84272 | 35586 ft | 382 kts | 272° |
| 2026-05-05 00:06 | 35.33399 | -98.90757 | 35586 ft | 380 kts | 272° |
| 2026-05-05 00:07 | 35.33242 | -98.97219 | 35621 ft | 379 kts | 272° |
| 2026-05-05 00:07 | 35.33086 | -99.03541 | 35631 ft | 379 kts | 272° |
| 2026-05-05 00:08 | 35.32924 | -99.09993 | 35640 ft | 379 kts | 272° |
| 2026-05-05 00:08 | 35.32757 | -99.16450 | 35635 ft | 380 kts | 272° |
| 2026-05-05 00:09 | 35.32587 | -99.22917 | 35633 ft | 380 kts | 272° |
| 2026-05-05 00:09 | 35.32414 | -99.29343 | 35636 ft | 380 kts | 272° |
| 2026-05-05 00:10 | 35.32236 | -99.35830 | 35634 ft | 381 kts | 272° |
| 2026-05-05 00:10 | 35.32055 | -99.42319 | 35625 ft | 381 kts | 272° |
| 2026-05-05 00:11 | 35.31871 | -99.48800 | 35612 ft | 381 kts | 272° |
| 2026-05-05 00:11 | 35.31683 | -99.55293 | 35608 ft | 382 kts | 272° |
| 2026-05-05 00:12 | 35.31492 | -99.61749 | 35611 ft | 382 kts | 272° |
| 2026-05-05 00:12 | 35.31296 | -99.68261 | 35598 ft | 383 kts | 272° |
| 2026-05-05 00:13 | 35.31096 | -99.74777 | 35599 ft | 383 kts | 272° |
| 2026-05-05 00:13 | 35.30893 | -99.81301 | 35585 ft | 383 kts | 272° |
| 2026-05-05 00:14 | 35.30686 | -99.87817 | 35584 ft | 383 kts | 271° |
| 2026-05-05 00:14 | 35.30478 | -99.94290 | 35598 ft | 383 kts | 271° |
| 2026-05-05 00:15 | 35.30269 | -100.00669 | 35596 ft | 384 kts | 271° |
| 2026-05-05 00:15 | 35.30052 | -100.07196 | 35593 ft | 384 kts | 271° |
| 2026-05-05 00:16 | 35.29831 | -100.13732 | 35602 ft | 384 kts | 271° |
| 2026-05-05 00:16 | 35.29606 | -100.20261 | 35597 ft | 384 kts | 271° |
| 2026-05-05 00:17 | 35.29379 | -100.26794 | 35592 ft | 384 kts | 271° |
| 2026-05-05 00:17 | 35.29147 | -100.33320 | 35599 ft | 384 kts | 271° |
| 2026-05-05 00:18 | 35.28912 | -100.39855 | 35603 ft | 384 kts | 271° |
| 2026-05-05 00:18 | 35.28671 | -100.46383 | 35598 ft | 382 kts | 270° |
| 2026-05-05 00:19 | 35.28387 | -100.52870 | 35629 ft | 382 kts | 271° |
| 2026-05-05 00:19 | 35.28159 | -100.59351 | 35595 ft | 384 kts | 271° |
| 2026-05-05 00:20 | 35.27929 | -100.65892 | 35607 ft | 386 kts | 270° |
| 2026-05-05 00:20 | 35.27683 | -100.72458 | 35664 ft | 386 kts | 270° |
| 2026-05-05 00:21 | 35.27428 | -100.79043 | 35623 ft | 387 kts | 270° |
| 2026-05-05 00:21 | 35.27167 | -100.85607 | 35617 ft | 386 kts | 270° |
| 2026-05-05 00:22 | 35.26903 | -100.92149 | 35624 ft | 384 kts | 270° |
| 2026-05-05 00:22 | 35.26638 | -100.98635 | 35628 ft | 383 kts | 270° |
| 2026-05-05 00:23 | 35.26374 | -101.05016 | 35625 ft | 383 kts | 270° |
| 2026-05-05 00:23 | 35.26102 | -101.11516 | 35624 ft | 383 kts | 270° |
| 2026-05-05 00:24 | 35.25826 | -101.18020 | 35626 ft | 383 kts | 270° |
| 2026-05-05 00:24 | 35.25546 | -101.24525 | 35625 ft | 383 kts | 270° |
| 2026-05-05 00:25 | 35.25265 | -101.30991 | 35621 ft | 383 kts | 270° |
| 2026-05-05 00:25 | 35.24978 | -101.37502 | 35662 ft | 383 kts | 270° |
| 2026-05-05 00:26 | 35.24688 | -101.44022 | 35697 ft | 384 kts | 270° |
| 2026-05-05 00:26 | 35.24393 | -101.50560 | 35727 ft | 385 kts | 270° |
| 2026-05-05 00:27 | 35.24094 | -101.57105 | 35757 ft | 385 kts | 270° |
| 2026-05-05 00:27 | 35.23792 | -101.63652 | 35766 ft | 385 kts | 270° |
| 2026-05-05 00:28 | 35.23487 | -101.70192 | 35757 ft | 385 kts | 270° |
| 2026-05-05 00:28 | 35.23298 | -101.76689 | 35765 ft | 384 kts | 271° |
| 2026-05-05 00:29 | 35.23162 | -101.83233 | 35763 ft | 384 kts | 271° |
| 2026-05-05 00:29 | 35.23017 | -101.89773 | 35733 ft | 385 kts | 271° |
| 2026-05-05 00:30 | 35.22859 | -101.96322 | 35708 ft | 385 kts | 271° |
| 2026-05-05 00:30 | 35.22698 | -102.02731 | 35678 ft | 385 kts | 271° |
| 2026-05-05 00:31 | 35.22557 | -102.08161 | 35656 ft | 384 kts | 270° |
| 2026-05-05 00:31 | 35.22355 | -102.15763 | 35633 ft | 384 kts | 270° |
| 2026-05-05 00:32 | 35.22207 | -102.21237 | 35638 ft | 384 kts | 270° |
| 2026-05-05 00:32 | 35.22027 | -102.27774 | 35642 ft | 385 kts | 270° |
| 2026-05-05 00:33 | 35.21843 | -102.34313 | 35650 ft | 385 kts | 270° |
| 2026-05-05 00:33 | 35.21657 | -102.40810 | 35635 ft | 385 kts | 270° |
| 2026-05-05 00:34 | 35.21467 | -102.47349 | 35643 ft | 385 kts | 270° |
| 2026-05-05 00:34 | 35.21272 | -102.53904 | 35647 ft | 385 kts | 270° |
| 2026-05-05 00:35 | 35.21075 | -102.60442 | 35646 ft | 385 kts | 270° |
| 2026-05-05 00:35 | 35.20873 | -102.66986 | 35656 ft | 385 kts | 270° |
| 2026-05-05 00:36 | 35.20668 | -102.73536 | 35650 ft | 385 kts | 270° |
| 2026-05-05 00:36 | 35.20461 | -102.80031 | 35651 ft | 385 kts | 269° |
| 2026-05-05 00:37 | 35.20250 | -102.86569 | 35658 ft | 385 kts | 269° |
| 2026-05-05 00:37 | 35.20034 | -102.93124 | 35654 ft | 385 kts | 269° |
| 2026-05-05 00:38 | 35.19815 | -102.99670 | 35652 ft | 385 kts | 269° |
| 2026-05-05 00:38 | 35.19597 | -103.06086 | 35652 ft | 385 kts | 269° |
| 2026-05-05 00:39 | 35.19371 | -103.12632 | 35644 ft | 385 kts | 269° |
| 2026-05-05 00:39 | 35.19142 | -103.19164 | 35658 ft | 385 kts | 269° |
| 2026-05-05 00:40 | 35.18910 | -103.25664 | 35680 ft | 385 kts | 269° |
| 2026-05-05 00:40 | 35.18674 | -103.32203 | 35718 ft | 385 kts | 269° |
| 2026-05-05 00:41 | 35.18434 | -103.38746 | 35734 ft | 385 kts | 269° |
| 2026-05-05 00:41 | 35.18190 | -103.45286 | 35765 ft | 385 kts | 269° |
| 2026-05-05 00:42 | 35.17943 | -103.51830 | 35769 ft | 385 kts | 268° |
| 2026-05-05 00:42 | 35.17693 | -103.58372 | 35781 ft | 385 kts | 268° |
| 2026-05-05 00:43 | 35.17438 | -103.64919 | 35780 ft | 386 kts | 268° |
| 2026-05-05 00:43 | 35.17182 | -103.71427 | 35791 ft | 386 kts | 268° |
| 2026-05-05 00:44 | 35.16920 | -103.77987 | 35764 ft | 387 kts | 268° |
| 2026-05-05 00:44 | 35.16654 | -103.84558 | 35732 ft | 387 kts | 268° |
| 2026-05-05 00:45 | 35.16385 | -103.91126 | 35693 ft | 387 kts | 268° |
| 2026-05-05 00:45 | 35.16112 | -103.97699 | 35672 ft | 387 kts | 268° |
| 2026-05-05 00:46 | 35.15840 | -104.04144 | 35647 ft | 388 kts | 268° |
| 2026-05-05 00:46 | 35.15562 | -104.10728 | 35648 ft | 388 kts | 268° |
| 2026-05-05 00:47 | 35.15277 | -104.17277 | 35640 ft | 388 kts | 268° |
| 2026-05-05 00:47 | 35.14988 | -104.23859 | 35623 ft | 388 kts | 268° |
| 2026-05-05 00:48 | 35.14697 | -104.30457 | 35652 ft | 389 kts | 268° |
| 2026-05-05 00:48 | 35.14401 | -104.37065 | 35693 ft | 390 kts | 267° |
| 2026-05-05 00:49 | 35.14101 | -104.43693 | 35716 ft | 391 kts | 267° |
| 2026-05-05 00:49 | 35.13796 | -104.50327 | 35735 ft | 391 kts | 267° |
| 2026-05-05 00:50 | 35.13488 | -104.56963 | 35753 ft | 391 kts | 267° |
| 2026-05-05 00:50 | 35.13176 | -104.63592 | 35764 ft | 391 kts | 267° |
| 2026-05-05 00:51 | 35.12864 | -104.70153 | 35765 ft | 390 kts | 267° |
| 2026-05-05 00:51 | 35.12546 | -104.76782 | 35759 ft | 390 kts | 267° |
| 2026-05-05 00:52 | 35.12224 | -104.83392 | 35739 ft | 390 kts | 267° |
| 2026-05-05 00:52 | 35.11899 | -104.90014 | 35712 ft | 390 kts | 267° |
| 2026-05-05 00:53 | 35.11571 | -104.96629 | 35694 ft | 390 kts | 267° |
| 2026-05-05 00:53 | 35.11247 | -105.03070 | 35671 ft | 392 kts | 267° |
| 2026-05-05 00:54 | 35.10983 | -105.09765 | 35691 ft | 393 kts | 268° |
| 2026-05-05 00:54 | 35.10789 | -105.16397 | 35775 ft | 391 kts | 268° |
| 2026-05-05 00:55 | 35.10589 | -105.23075 | 35715 ft | 394 kts | 268° |
| 2026-05-05 00:55 | 35.10373 | -105.29769 | 35700 ft | 394 kts | 267° |
| 2026-05-05 00:56 | 35.10149 | -105.36459 | 35729 ft | 394 kts | 267° |
| 2026-05-05 00:56 | 35.09923 | -105.43138 | 35732 ft | 394 kts | 267° |
| 2026-05-05 00:57 | 35.09693 | -105.49821 | 35747 ft | 393 kts | 267° |
| 2026-05-05 00:57 | 35.09459 | -105.56502 | 35748 ft | 393 kts | 267° |
| 2026-05-05 00:58 | 35.09221 | -105.63174 | 35769 ft | 393 kts | 267° |
| 2026-05-05 00:58 | 35.08983 | -105.69798 | 35783 ft | 392 kts | 267° |
| 2026-05-05 00:59 | 35.08738 | -105.76441 | 35770 ft | 390 kts | 267° |
| 2026-05-05 00:59 | 35.08492 | -105.83055 | 35771 ft | 389 kts | 267° |
| 2026-05-05 01:00 | 35.08244 | -105.89655 | 35774 ft | 388 kts | 267° |
| 2026-05-05 01:00 | 35.07992 | -105.96239 | 35776 ft | 388 kts | 267° |
| 2026-05-05 01:01 | 35.07742 | -106.02656 | 35783 ft | 387 kts | 266° |
| 2026-05-05 01:01 | 35.07485 | -106.09184 | 35778 ft | 387 kts | 266° |
| 2026-05-05 01:02 | 35.07223 | -106.15747 | 35779 ft | 386 kts | 266° |
| 2026-05-05 01:02 | 35.06959 | -106.22290 | 35792 ft | 386 kts | 266° |
| 2026-05-05 01:03 | 35.06691 | -106.28827 | 35821 ft | 386 kts | 266° |
| 2026-05-05 01:03 | 35.06419 | -106.35380 | 35876 ft | 387 kts | 266° |
| 2026-05-05 01:04 | 35.06143 | -106.41945 | 35887 ft | 387 kts | 266° |
| 2026-05-05 01:04 | 35.05724 | -106.51729 | 35919 ft | 386 kts | 266° |
| 2026-05-05 01:05 | 35.05440 | -106.58276 | 35914 ft | 385 kts | 266° |
| 2026-05-05 01:05 | 35.05154 | -106.64796 | 35920 ft | 385 kts | 266° |
| 2026-05-05 01:06 | 35.04863 | -106.71327 | 35894 ft | 385 kts | 265° |
| 2026-05-05 01:06 | 35.04571 | -106.77849 | 35937 ft | 385 kts | 265° |
| 2026-05-05 01:07 | 35.04301 | -106.84341 | 35943 ft | 386 kts | 266° |
| 2026-05-05 01:07 | 35.04215 | -106.87618 | 35737 ft | 386 kts | 266° |
| 2026-05-05 01:07 | 35.04143 | -106.90904 | 35739 ft | 387 kts | 266° |
| 2026-05-05 01:08 | 35.03998 | -106.97485 | 35745 ft | 388 kts | 266° |
| 2026-05-05 01:08 | 35.03846 | -107.03873 | 35745 ft | 388 kts | 266° |
| 2026-05-05 01:09 | 35.03680 | -107.10455 | 35728 ft | 388 kts | 266° |
| 2026-05-05 01:09 | 35.03506 | -107.17024 | 35717 ft | 388 kts | 266° |
| 2026-05-05 01:10 | 35.03329 | -107.23604 | 35736 ft | 388 kts | 266° |
| 2026-05-05 01:10 | 35.03148 | -107.30197 | 35743 ft | 389 kts | 266° |
| 2026-05-05 01:11 | 35.02963 | -107.36806 | 35756 ft | 389 kts | 266° |
| 2026-05-05 01:11 | 35.02774 | -107.43411 | 35747 ft | 390 kts | 266° |
| 2026-05-05 01:12 | 35.02584 | -107.49979 | 35760 ft | 389 kts | 265° |
| 2026-05-05 01:12 | 35.02388 | -107.56590 | 35758 ft | 390 kts | 265° |
| 2026-05-05 01:13 | 35.02188 | -107.63204 | 35754 ft | 390 kts | 265° |
| 2026-05-05 01:13 | 35.01986 | -107.69812 | 35753 ft | 390 kts | 265° |
| 2026-05-05 01:14 | 35.01779 | -107.76430 | 35748 ft | 390 kts | 265° |
| 2026-05-05 01:14 | 35.01570 | -107.83001 | 35762 ft | 390 kts | 265° |
| 2026-05-05 01:15 | 35.01355 | -107.89626 | 35761 ft | 391 kts | 265° |
| 2026-05-05 01:15 | 35.01137 | -107.96267 | 35764 ft | 391 kts | 265° |
| 2026-05-05 01:16 | 35.00922 | -108.02709 | 35761 ft | 392 kts | 265° |
| 2026-05-05 01:16 | 35.00696 | -108.09358 | 35767 ft | 392 kts | 265° |
| 2026-05-05 01:17 | 35.00468 | -108.15968 | 35755 ft | 392 kts | 265° |
| 2026-05-05 01:17 | 35.00235 | -108.22614 | 35756 ft | 392 kts | 265° |
| 2026-05-05 01:18 | 34.99999 | -108.29253 | 35751 ft | 391 kts | 265° |
| 2026-05-05 01:18 | 34.99759 | -108.35891 | 35756 ft | 391 kts | 265° |
| 2026-05-05 01:19 | 34.99557 | -108.41402 | 35754 ft | 391 kts | 265° |
| 2026-05-05 01:19 | 34.99311 | -108.48021 | 35761 ft | 391 kts | 265° |
| 2026-05-05 01:20 | 34.99061 | -108.54646 | 35759 ft | 391 kts | 264° |
| 2026-05-05 01:20 | 34.98808 | -108.61261 | 35761 ft | 390 kts | 264° |
| 2026-05-05 01:21 | 34.98554 | -108.67831 | 35754 ft | 390 kts | 264° |
| 2026-05-05 01:21 | 34.98294 | -108.74426 | 35762 ft | 389 kts | 264° |
| 2026-05-05 01:22 | 34.98032 | -108.81017 | 35761 ft | 389 kts | 264° |
| 2026-05-05 01:22 | 34.97763 | -108.87604 | 35767 ft | 389 kts | 264° |
| 2026-05-05 01:23 | 34.97501 | -108.94086 | 35760 ft | 389 kts | 264° |
| 2026-05-05 01:23 | 34.97235 | -109.00509 | 35768 ft | 389 kts | 264° |
| 2026-05-05 01:24 | 34.96960 | -109.07054 | 35805 ft | 389 kts | 264° |
| 2026-05-05 01:24 | 34.96680 | -109.13656 | 35781 ft | 390 kts | 264° |
| 2026-05-05 01:25 | 34.96330 | -109.20248 | 35778 ft | 390 kts | 262° |
| 2026-05-05 01:25 | 34.95891 | -109.26657 | 35787 ft | 391 kts | 262° |
| 2026-05-05 01:26 | 34.95463 | -109.32856 | 35795 ft | 391 kts | 262° |
| 2026-05-05 01:26 | 34.95013 | -109.39475 | 35800 ft | 392 kts | 262° |
| 2026-05-05 01:27 | 34.94565 | -109.46092 | 35808 ft | 392 kts | 262° |
| 2026-05-05 01:27 | 34.94115 | -109.52713 | 35801 ft | 392 kts | 262° |
| 2026-05-05 01:28 | 34.93663 | -109.59313 | 35802 ft | 392 kts | 262° |
| 2026-05-05 01:28 | 34.93205 | -109.65941 | 35803 ft | 392 kts | 262° |
| 2026-05-05 01:29 | 34.92744 | -109.72570 | 35812 ft | 392 kts | 262° |
| 2026-05-05 01:29 | 34.92279 | -109.79204 | 35811 ft | 392 kts | 262° |
| 2026-05-05 01:30 | 34.91813 | -109.85780 | 35829 ft | 392 kts | 261° |
| 2026-05-05 01:30 | 34.91341 | -109.92405 | 35820 ft | 392 kts | 261° |
| 2026-05-05 01:31 | 34.86809 | -110.02049 | 36502 ft | 390 kts | 257° |
| 2026-05-05 01:31 | 34.86710 | -110.05290 | 36167 ft | 401 kts | 274° |
| 2026-05-05 01:31 | 34.87320 | -110.08510 | 36084 ft | 404 kts | 275° |
| 2026-05-05 01:32 | 34.88082 | -110.11835 | 35932 ft | 405 kts | 278° |
| 2026-05-05 01:32 | 34.88737 | -110.15141 | 35869 ft | 398 kts | 272° |
| 2026-05-05 01:32 | 34.89110 | -110.21773 | 35854 ft | 395 kts | 263° |
| 2026-05-05 01:33 | 34.88752 | -110.28461 | 35848 ft | 396 kts | 261° |
| 2026-05-05 01:33 | 34.88224 | -110.35160 | 35855 ft | 398 kts | 260° |
| 2026-05-05 01:34 | 34.87702 | -110.41868 | 35853 ft | 397 kts | 261° |
| 2026-05-05 01:34 | 34.87194 | -110.48554 | 35832 ft | 396 kts | 260° |
| 2026-05-05 01:35 | 34.86683 | -110.55231 | 35852 ft | 396 kts | 260° |
| 2026-05-05 01:35 | 34.86169 | -110.61871 | 35864 ft | 396 kts | 260° |
| 2026-05-05 01:36 | 34.85644 | -110.68604 | 35958 ft | 397 kts | 260° |
| 2026-05-05 01:36 | 34.85123 | -110.75260 | 35953 ft | 397 kts | 260° |
| 2026-05-05 01:37 | 34.84594 | -110.81967 | 35913 ft | 398 kts | 260° |
| 2026-05-05 01:37 | 34.84061 | -110.88675 | 35920 ft | 398 kts | 260° |
| 2026-05-05 01:38 | 34.83522 | -110.95401 | 35913 ft | 400 kts | 260° |
| 2026-05-05 01:38 | 34.82993 | -111.01961 | 35906 ft | 401 kts | 259° |
| 2026-05-05 01:39 | 34.82446 | -111.08711 | 35892 ft | 401 kts | 259° |
| 2026-05-05 01:39 | 34.81894 | -111.15467 | 35941 ft | 400 kts | 259° |
| 2026-05-05 01:40 | 34.81342 | -111.22195 | 35903 ft | 398 kts | 259° |
| 2026-05-05 01:40 | 34.80790 | -111.28878 | 35902 ft | 394 kts | 258° |
| 2026-05-05 01:41 | 34.80242 | -111.35459 | 35903 ft | 392 kts | 258° |
| 2026-05-05 01:41 | 34.79688 | -111.42045 | 35897 ft | 391 kts | 258° |
| 2026-05-05 01:42 | 34.79132 | -111.48618 | 35887 ft | 391 kts | 258° |
| 2026-05-05 01:42 | 34.78575 | -111.55195 | 35887 ft | 391 kts | 258° |
| 2026-05-05 01:43 | 34.78008 | -111.61784 | 35978 ft | 393 kts | 258° |
| 2026-05-05 01:43 | 34.77437 | -111.68408 | 35999 ft | 394 kts | 258° |
| 2026-05-05 01:44 | 34.76863 | -111.75038 | 36006 ft | 394 kts | 258° |
| 2026-05-05 01:44 | 34.76287 | -111.81647 | 36094 ft | 391 kts | 258° |
| 2026-05-05 01:45 | 34.75713 | -111.88205 | 36009 ft | 392 kts | 258° |
| 2026-05-05 01:45 | 34.75131 | -111.94795 | 35978 ft | 391 kts | 258° |
| 2026-05-05 01:46 | 34.74559 | -112.01223 | 35949 ft | 390 kts | 258° |
| 2026-05-05 01:46 | 34.73973 | -112.07779 | 35920 ft | 390 kts | 258° |
| 2026-05-05 01:47 | 34.73380 | -112.14367 | 35961 ft | 394 kts | 257° |
| 2026-05-05 01:47 | 34.72860 | -112.20974 | 35951 ft | 392 kts | 257° |
| 2026-05-05 01:48 | 34.72213 | -112.27535 | 35986 ft | 390 kts | 257° |
| 2026-05-05 01:48 | 34.71586 | -112.34076 | 36016 ft | 389 kts | 257° |
| 2026-05-05 01:49 | 34.70983 | -112.40620 | 36018 ft | 389 kts | 257° |
| 2026-05-05 01:49 | 34.70379 | -112.47151 | 36018 ft | 389 kts | 257° |
| 2026-05-05 01:50 | 34.70057 | -112.50408 | 35852 ft | 388 kts | 256° |
| 2026-05-05 01:50 | 34.69699 | -112.53657 | 35852 ft | 388 kts | 255° |
| 2026-05-05 01:50 | 34.68950 | -112.60149 | 35852 ft | 388 kts | 255° |
| 2026-05-05 01:51 | 34.68199 | -112.66659 | 35847 ft | 389 kts | 255° |
| 2026-05-05 01:51 | 34.67452 | -112.73176 | 35854 ft | 389 kts | 255° |
| 2026-05-05 01:52 | 34.66705 | -112.79698 | 35871 ft | 390 kts | 255° |
| 2026-05-05 01:52 | 34.65955 | -112.86223 | 35853 ft | 390 kts | 255° |
| 2026-05-05 01:53 | 34.65203 | -112.92745 | 35853 ft | 390 kts | 255° |
| 2026-05-05 01:53 | 34.64447 | -112.99257 | 35842 ft | 389 kts | 255° |
| 2026-05-05 01:54 | 34.63711 | -113.05574 | 35843 ft | 388 kts | 255° |
| 2026-05-05 01:54 | 34.62952 | -113.12055 | 35864 ft | 387 kts | 254° |
| 2026-05-05 01:55 | 34.62187 | -113.18550 | 35846 ft | 388 kts | 254° |
| 2026-05-05 01:55 | 34.61417 | -113.25057 | 35851 ft | 389 kts | 254° |
| 2026-05-05 01:56 | 34.60640 | -113.31581 | 35837 ft | 389 kts | 254° |
| 2026-05-05 01:56 | 34.59867 | -113.38081 | 35838 ft | 389 kts | 253° |
| 2026-05-05 01:57 | 34.59092 | -113.44550 | 35857 ft | 391 kts | 253° |
| 2026-05-05 01:57 | 34.58307 | -113.51083 | 35837 ft | 391 kts | 253° |
| 2026-05-05 01:58 | 34.57516 | -113.57603 | 35840 ft | 392 kts | 253° |
| 2026-05-05 01:58 | 34.56719 | -113.64153 | 35835 ft | 393 kts | 253° |
| 2026-05-05 01:59 | 34.55918 | -113.70723 | 35830 ft | 393 kts | 253° |
| 2026-05-05 01:59 | 34.55115 | -113.77276 | 35827 ft | 393 kts | 253° |
| 2026-05-05 02:00 | 34.54308 | -113.83827 | 35825 ft | 393 kts | 252° |
| 2026-05-05 02:00 | 34.53497 | -113.90376 | 35822 ft | 393 kts | 252° |
| 2026-05-05 02:01 | 34.52683 | -113.96928 | 35825 ft | 393 kts | 252° |
| 2026-05-05 02:01 | 34.51889 | -114.03296 | 35824 ft | 392 kts | 252° |
| 2026-05-05 02:02 | 34.50821 | -114.09730 | 35848 ft | 387 kts | 248° |
| 2026-05-05 02:02 | 34.49452 | -114.16034 | 35847 ft | 387 kts | 248° |
| 2026-05-05 02:03 | 34.48072 | -114.22348 | 35852 ft | 388 kts | 248° |
| 2026-05-05 02:03 | 34.46709 | -114.28686 | 35854 ft | 388 kts | 248° |
| 2026-05-05 02:04 | 34.45356 | -114.35020 | 35852 ft | 388 kts | 248° |
| 2026-05-05 02:04 | 34.44013 | -114.41313 | 35819 ft | 388 kts | 248° |
| 2026-05-05 02:05 | 34.42658 | -114.47634 | 35813 ft | 388 kts | 248° |
| 2026-05-05 02:05 | 34.41301 | -114.53953 | 35811 ft | 387 kts | 247° |
| 2026-05-05 02:06 | 34.39941 | -114.60264 | 35808 ft | 387 kts | 247° |
| 2026-05-05 02:06 | 34.38811 | -114.65497 | 35813 ft | 387 kts | 247° |
| 2026-05-05 02:07 | 34.37444 | -114.71810 | 35811 ft | 387 kts | 247° |
| 2026-05-05 02:07 | 34.36076 | -114.78112 | 35808 ft | 387 kts | 247° |
| 2026-05-05 02:08 | 34.34704 | -114.84416 | 35811 ft | 387 kts | 248° |
| 2026-05-05 02:08 | 34.33334 | -114.90700 | 35815 ft | 387 kts | 247° |
| 2026-05-05 02:09 | 34.31954 | -114.96996 | 35821 ft | 388 kts | 247° |
| 2026-05-05 02:09 | 34.30597 | -115.03175 | 35829 ft | 389 kts | 247° |
| 2026-05-05 02:10 | 34.29212 | -115.09474 | 35820 ft | 391 kts | 247° |
| 2026-05-05 02:10 | 34.27812 | -115.15832 | 35813 ft | 391 kts | 247° |
| 2026-05-05 02:11 | 34.26405 | -115.22198 | 35813 ft | 392 kts | 247° |
| 2026-05-05 02:11 | 34.25078 | -115.28597 | 35819 ft | 395 kts | 250° |
| 2026-05-05 02:12 | 34.23710 | -115.38409 | 35487 ft | 391 kts | 251° |
| 2026-05-05 02:12 | 34.23254 | -115.41658 | 35209 ft | 391 kts | 251° |
| 2026-05-05 02:13 | 34.22793 | -115.44911 | 34747 ft | 394 kts | 251° |
| 2026-05-05 02:13 | 34.22324 | -115.48195 | 34290 ft | 397 kts | 251° |
| 2026-05-05 02:13 | 34.21862 | -115.51442 | 33899 ft | 396 kts | 251° |
| 2026-05-05 02:13 | 34.21389 | -115.54730 | 33412 ft | 398 kts | 251° |
| 2026-05-05 02:14 | 34.20914 | -115.58032 | 32834 ft | 401 kts | 252° |
| 2026-05-05 02:14 | 34.20437 | -115.61364 | 32250 ft | 404 kts | 252° |
| 2026-05-05 02:14 | 34.19958 | -115.64715 | 32051 ft | 408 kts | 252° |
| 2026-05-05 02:14 | 34.19466 | -115.68124 | 31914 ft | 413 kts | 252° |
| 2026-05-05 02:15 | 34.18978 | -115.71525 | 31840 ft | 409 kts | 253° |
| 2026-05-05 02:15 | 34.18013 | -115.78255 | 31865 ft | 406 kts | 252° |
| 2026-05-05 02:16 | 34.17033 | -115.84998 | 31885 ft | 408 kts | 252° |
| 2026-05-05 02:16 | 34.16047 | -115.91761 | 31902 ft | 409 kts | 252° |
| 2026-05-05 02:17 | 34.15062 | -115.98492 | 31923 ft | 411 kts | 253° |
| 2026-05-05 02:17 | 34.14087 | -116.05132 | 31926 ft | 412 kts | 253° |
| 2026-05-05 02:18 | 34.13081 | -116.11960 | 31927 ft | 413 kts | 253° |
| 2026-05-05 02:18 | 34.12073 | -116.18784 | 31930 ft | 413 kts | 253° |
| 2026-05-05 02:19 | 34.11061 | -116.25603 | 31883 ft | 413 kts | 253° |
| 2026-05-05 02:19 | 34.10079 | -116.32439 | 31887 ft | 415 kts | 255° |
| 2026-05-05 02:20 | 34.09367 | -116.39340 | 31759 ft | 409 kts | 256° |
| 2026-05-05 02:20 | 34.09038 | -116.42706 | 31257 ft | 401 kts | 256° |
| 2026-05-05 02:20 | 34.08696 | -116.46043 | 30468 ft | 399 kts | 256° |
| 2026-05-05 02:20 | 34.08342 | -116.49363 | 29747 ft | 397 kts | 256° |
| 2026-05-05 02:21 | 34.07994 | -116.52620 | 29470 ft | 385 kts | 256° |
| 2026-05-05 02:21 | 34.07658 | -116.55755 | 29297 ft | 370 kts | 255° |
| 2026-05-05 02:21 | 34.07334 | -116.58756 | 29008 ft | 360 kts | 255° |
| 2026-05-05 02:21 | 34.07035 | -116.61734 | 28560 ft | 355 kts | 256° |
| 2026-05-05 02:22 | 34.06763 | -116.64689 | 27947 ft | 355 kts | 257° |
| 2026-05-05 02:22 | 34.06489 | -116.67651 | 27283 ft | 356 kts | 257° |
| 2026-05-05 02:22 | 34.06219 | -116.70612 | 26741 ft | 354 kts | 257° |
| 2026-05-05 02:22 | 34.05947 | -116.73560 | 26229 ft | 352 kts | 258° |
| 2026-05-05 02:23 | 34.05677 | -116.76480 | 25822 ft | 349 kts | 258° |
| 2026-05-05 02:23 | 34.05404 | -116.79389 | 25298 ft | 349 kts | 258° |
| 2026-05-05 02:23 | 34.05130 | -116.82308 | 24752 ft | 350 kts | 258° |
| 2026-05-05 02:23 | 34.04856 | -116.85223 | 24260 ft | 350 kts | 259° |
| 2026-05-05 02:24 | 34.04581 | -116.88131 | 23862 ft | 349 kts | 259° |
| 2026-05-05 02:24 | 34.04272 | -116.91024 | 23410 ft | 347 kts | 258° |
| 2026-05-05 02:24 | 34.03892 | -116.93887 | 22893 ft | 345 kts | 257° |
| 2026-05-05 02:24 | 34.03504 | -116.96740 | 22366 ft | 345 kts | 257° |
| 2026-05-05 02:25 | 34.03129 | -116.99560 | 21878 ft | 344 kts | 257° |
| 2026-05-05 02:25 | 34.02772 | -117.02285 | 21396 ft | 344 kts | 258° |
| 2026-05-05 02:25 | 34.02413 | -117.05138 | 20895 ft | 344 kts | 258° |
| 2026-05-05 02:25 | 34.02076 | -117.07989 | 20394 ft | 343 kts | 258° |
| 2026-05-05 02:26 | 34.01744 | -117.10836 | 19888 ft | 343 kts | 259° |
| 2026-05-05 02:26 | 34.01410 | -117.13686 | 19360 ft | 343 kts | 259° |
| 2026-05-05 02:26 | 34.01073 | -117.16541 | 18837 ft | 345 kts | 259° |
| 2026-05-05 02:26 | 34.00731 | -117.19409 | 18375 ft | 346 kts | 259° |
| 2026-05-05 02:27 | 34.00389 | -117.22277 | 17764 ft | 346 kts | 259° |
| 2026-05-05 02:27 | 34.00045 | -117.25151 | 17181 ft | 347 kts | 259° |
| 2026-05-05 02:27 | 33.99701 | -117.28027 | 16597 ft | 348 kts | 259° |
| 2026-05-05 02:27 | 33.99357 | -117.30878 | 16012 ft | 348 kts | 259° |
| 2026-05-05 02:28 | 33.99015 | -117.33772 | 15451 ft | 348 kts | 259° |
| 2026-05-05 02:28 | 33.98677 | -117.36662 | 14889 ft | 349 kts | 260° |
| 2026-05-05 02:28 | 33.98338 | -117.39556 | 14341 ft | 348 kts | 260° |
| 2026-05-05 02:28 | 33.98000 | -117.42436 | 13786 ft | 340 kts | 260° |
| 2026-05-05 02:29 | 33.97679 | -117.45164 | 13143 ft | 319 kts | 260° |
| 2026-05-05 02:29 | 33.97383 | -117.47756 | 12544 ft | 306 kts | 263° |
| 2026-05-05 02:29 | 33.97505 | -117.50282 | 11944 ft | 300 kts | 281° |
| 2026-05-05 02:29 | 33.98070 | -117.52645 | 11400 ft | 296 kts | 284° |
| 2026-05-05 02:30 | 33.98660 | -117.55011 | 10859 ft | 293 kts | 284° |
| 2026-05-05 02:30 | 33.99235 | -117.57358 | 10329 ft | 290 kts | 284° |
| 2026-05-05 02:30 | 33.99794 | -117.59674 | 10131 ft | 285 kts | 284° |
| 2026-05-05 02:30 | 34.00339 | -117.61960 | 10005 ft | 284 kts | 284° |
| 2026-05-05 02:31 | 34.00880 | -117.64249 | 10002 ft | 285 kts | 284° |
| 2026-05-05 02:31 | 34.01415 | -117.66515 | 9985 ft | 275 kts | 284° |
| 2026-05-05 02:31 | 34.01926 | -117.68685 | 9970 ft | 263 kts | 283° |
| 2026-05-05 02:31 | 34.02174 | -117.70840 | 9861 ft | 260 kts | 265° |
| 2026-05-05 02:32 | 34.01947 | -117.72991 | 9694 ft | 255 kts | 261° |
| 2026-05-05 02:32 | 34.01715 | -117.75113 | 9574 ft | 257 kts | 262° |
| 2026-05-05 02:32 | 34.01498 | -117.77255 | 9287 ft | 257 kts | 262° |
| 2026-05-05 02:32 | 34.01282 | -117.79389 | 9060 ft | 261 kts | 262° |
| 2026-05-05 02:33 | 34.01067 | -117.81555 | 8803 ft | 257 kts | 263° |
| 2026-05-05 02:33 | 34.00864 | -117.83634 | 8508 ft | 246 kts | 263° |
| 2026-05-05 02:33 | 34.00663 | -117.85688 | 8254 ft | 249 kts | 263° |
| 2026-05-05 02:33 | 34.00458 | -117.87780 | 7992 ft | 253 kts | 263° |
| 2026-05-05 02:34 | 34.00250 | -117.89894 | 7621 ft | 253 kts | 263° |
| 2026-05-05 02:34 | 34.00045 | -117.91986 | 7235 ft | 250 kts | 263° |
| 2026-05-05 02:34 | 33.99842 | -117.94060 | 6872 ft | 249 kts | 263° |
| 2026-05-05 02:34 | 33.99644 | -117.96120 | 6487 ft | 246 kts | 264° |
| 2026-05-05 02:35 | 33.99467 | -117.98176 | 6049 ft | 248 kts | 263° |
| 2026-05-05 02:35 | 33.99286 | -118.00130 | 5642 ft | 247 kts | 263° |
| 2026-05-05 02:35 | 33.99083 | -118.02186 | 5238 ft | 246 kts | 263° |
| 2026-05-05 02:35 | 33.98880 | -118.04193 | 4808 ft | 243 kts | 263° |
| 2026-05-05 02:36 | 33.98675 | -118.06203 | 4369 ft | 240 kts | 263° |
| 2026-05-05 02:36 | 33.98473 | -118.08189 | 3902 ft | 239 kts | 263° |
| 2026-05-05 02:36 | 33.98269 | -118.10187 | 3501 ft | 240 kts | 263° |
| 2026-05-05 02:36 | 33.98070 | -118.12137 | 3043 ft | 228 kts | 263° |
| 2026-05-05 02:37 | 33.97881 | -118.13990 | 2583 ft | 217 kts | 263° |
| 2026-05-05 02:37 | 33.97702 | -118.15753 | 2177 ft | 204 kts | 262° |
| 2026-05-05 02:37 | 33.97540 | -118.17348 | 2021 ft | 177 kts | 263° |
| 2026-05-05 02:37 | 33.97400 | -118.18711 | 1971 ft | 152 kts | 262° |
| 2026-05-05 02:38 | 33.97280 | -118.19896 | 1983 ft | 139 kts | 263° |
| 2026-05-05 02:38 | 33.97159 | -118.21076 | 2001 ft | 144 kts | 262° |
| 2026-05-05 02:38 | 33.97038 | -118.22261 | 2012 ft | 141 kts | 263° |
| 2026-05-05 02:38 | 33.96922 | -118.23402 | 2007 ft | 137 kts | 262° |
| 2026-05-05 02:39 | 33.96806 | -118.24536 | 2003 ft | 135 kts | 262° |
| 2026-05-05 02:39 | 33.96689 | -118.25682 | 2012 ft | 142 kts | 262° |
| 2026-05-05 02:39 | 33.96568 | -118.26874 | 2007 ft | 143 kts | 262° |
| 2026-05-05 02:39 | 33.96447 | -118.28057 | 2004 ft | 141 kts | 261° |
| 2026-05-05 02:40 | 33.96328 | -118.29224 | 1987 ft | 141 kts | 262° |
| 2026-05-05 02:40 | 33.96206 | -118.30441 | 1760 ft | 146 kts | 262° |
| 2026-05-05 02:40 | 33.96085 | -118.31636 | 1566 ft | 144 kts | 262° |
| 2026-05-05 02:40 | 33.95961 | -118.32824 | 1268 ft | 139 kts | 262° |
| 2026-05-05 02:41 | 33.95853 | -118.33970 | 1106 ft | 135 kts | 262° |
| 2026-05-05 02:41 | 33.95726 | -118.35106 | 1087 ft | 146 kts | 261° |
| 2026-05-05 02:41 | 33.95597 | -118.36334 | 904 ft | 147 kts | 263° |
| 2026-05-05 02:41 | 33.95502 | -118.37521 | 610 ft | 140 kts | 260° |
| 2026-05-05 02:42 | 33.95378 | -118.38663 | 409 ft | 138 kts | 261° |
| 2026-05-05 02:42 | 33.95249 | -118.39828 | 260 ft | 144 kts | 259° |
| 2026-05-05 02:42 | 33.95125 | -118.41008 | 131 ft | 136 kts | 261° |
| 2026-05-05 02:42 | 33.95023 | -118.41999 | 128 ft | 98 kts | 263° |
| 2026-05-05 02:43 | 33.94961 | -118.42630 | 126 ft | 54 kts | 263° |
| 2026-05-05 02:43 | 33.94938 | -118.42869 | 130 ft | 24 kts | 263° |
| 2026-05-05 02:43 | 33.94925 | -118.43003 | 130 ft | 15 kts | 263° |